| time (UTC) | temp F | wind direction | speed MPH | gust MPH | rain 1hr in | rain 24hr in | rain mn in | humidity % | barometer mb |
| 20260508174624 | 53 | 293 | 0.0 | 1.0 | 0.00 | 0.04 | 0.04 | 87 | 1010.7 |
| 20260508173119 | 55 | 270 | 0.0 | 2.0 | 0.00 | 0.04 | 0.04 | 85 | 1010.7 |
| 20260508171615 | 57 | 317 | 1.0 | 1.0 | 0.00 | 0.04 | 0.04 | 84 | 1010.7 |
| 20260508170113 | 55 | 301 | 0.0 | 1.0 | 0.00 | 0.04 | 0.04 | 86 | 1011.3 |
| 20260508164608 | 54 | 291 | 1.0 | 4.0 | 0.00 | 0.04 | 0.04 | 86 | 1011.2 |
| 20260508163105 | 53 | 140 | 2.0 | 2.0 | 0.00 | 0.04 | 0.04 | 87 | 1011.7 |
| 20260508161602 | 53 | 292 | 0.0 | 1.0 | 0.00 | 0.03 | 0.03 | 86 | 1012.1 |
| 20260508160100 | 53 | 230 | 0.0 | 2.0 | 0.00 | 0.03 | 0.03 | 83 | 1012.0 |
| 20260508154557 | 54 | 297 | 0.0 | 1.0 | 0.00 | 0.03 | 0.03 | 79 | 1012.1 |
| 20260508153053 | 54 | 14 | 0.0 | 1.0 | 0.00 | 0.03 | 0.03 | 76 | 1012.1 |
| 20260508151548 | 54 | 301 | 0.0 | 2.0 | 0.00 | 0.03 | 0.03 | 76 | 1012.0 |
| 20260508150044 | 54 | 292 | 1.0 | 2.0 | 0.00 | 0.03 | 0.03 | 74 | 1011.9 |
| 20260508144541 | 55 | 291 | 1.0 | 2.0 | 0.00 | 0.03 | 0.03 | 75 | 1011.8 |
| 20260508143038 | 54 | 324 | 0.0 | 1.0 | 0.00 | 0.03 | 0.03 | 76 | 1011.9 |
| 20260508141534 | 54 | 306 | 0.0 | 1.0 | 0.00 | 0.03 | 0.03 | 75 | 1011.8 |
| 20260508140031 | 55 | 291 | 2.0 | 3.0 | 0.00 | 0.03 | 0.03 | 73 | 1011.9 |
| 20260508134526 | 54 | 305 | 1.0 | 2.0 | 0.00 | 0.03 | 0.03 | 75 | 1011.7 |
| 20260508133023 | 53 | 234 | 0.0 | 1.0 | 0.00 | 0.03 | 0.03 | 76 | 1012.1 |
| 20260508131518 | 53 | 266 | 0.0 | 1.0 | 0.00 | 0.03 | 0.03 | 75 | 1011.8 |
| 20260508130015 | 53 | 286 | 0.0 | 1.0 | 0.00 | 0.03 | 0.03 | 76 | 1012.0 |
| 20260508124512 | 52 | 265 | 0.0 | 0.0 | 0.00 | 0.03 | 0.03 | 77 | 1012.0 |
| 20260508123010 | 52 | 260 | 0.0 | 4.0 | 0.00 | 0.03 | 0.03 | 78 | 1011.9 |
| 20260508121508 | 50 | 348 | 0.0 | 1.0 | 0.00 | 0.03 | 0.03 | 81 | 1011.9 |
| 20260508120007 | 49 | 321 | 0.0 | 1.0 | 0.00 | 0.03 | 0.03 | 81 | 1011.8 |
| 20260508114503 | 48 | 305 | 1.0 | 1.0 | 0.00 | 0.03 | 0.03 | 84 | 1011.5 |
| 20260508113000 | 47 | 318 | 1.0 | 1.0 | 0.00 | 0.03 | 0.03 | 85 | 1011.1 |
| 20260508111456 | 0 | 0.0 | 0.0 | 0.00 | 0.00 | 0.00 | 1011.2 | ||
| 20260508105956 | 0 | 0.0 | 0.0 | 0.00 | 0.00 | 0.00 | 1011.2 | ||
| 20260508104453 | 0 | 0.0 | 0.0 | 0.00 | 0.00 | 0.00 | 1011.2 | ||
| 20260508102949 | 0 | 0.0 | 0.0 | 0.00 | 0.00 | 0.00 | 1011.0 | ||
| 20260508101448 | 0 | 0.0 | 0.0 | 0.00 | 0.03 | 0.03 | 1011.3 | ||
| 20260508095945 | 0 | 0.0 | 0.0 | 0.00 | 0.03 | 0.03 | 1011.1 | ||
| 20260508094442 | 0 | 0.0 | 0.0 | 0.00 | 0.03 | 0.03 | 1011.1 | ||
| 20260508092940 | 0 | 0.0 | 0.0 | 0.00 | 0.03 | 0.03 | 1011.1 | ||
| 20260508091438 | 44 | 60 | 0.0 | 0.0 | 0.00 | 0.03 | 0.03 | 94 | 1011.1 |
| 20260508085935 | 44 | 69 | 0.0 | 0.0 | 0.00 | 0.03 | 0.03 | 92 | 1011.1 |
| 20260508084431 | 45 | 113 | 0.0 | 0.0 | 0.00 | 0.03 | 0.03 | 92 | 1011.0 |
| 20260508082926 | 45 | 84 | 0.0 | 0.0 | 0.00 | 0.03 | 0.03 | 91 | 1011.1 |
| 20260508081424 | 46 | 88 | 0.0 | 0.0 | 0.00 | 0.03 | 0.03 | 91 | 1011.2 |
| 20260508075920 | 46 | 18 | 0.0 | 0.0 | 0.00 | 0.03 | 0.03 | 91 | 1011.3 |
| 20260508074419 | 46 | 100 | 0.0 | 0.0 | 0.00 | 0.03 | 0.03 | 91 | 1011.4 |
| 20260508072916 | 46 | 81 | 0.0 | 0.0 | 0.00 | 0.03 | 0.03 | 90 | 1011.6 |
| 20260508071413 | 46 | 54 | 0.0 | 0.0 | 0.00 | 0.03 | 0.03 | 89 | 1011.6 |
| 20260508065912 | 47 | 338 | 0.0 | 0.0 | 0.00 | 0.03 | 0.03 | 88 | 1011.6 |
| 20260508064411 | 47 | 111 | 0.0 | 0.0 | 0.00 | 0.03 | 0.03 | 88 | 1011.6 |
| 20260508062909 | 46 | 310 | 0.0 | 0.0 | 0.00 | 0.03 | 0.03 | 91 | 1011.7 |
| 20260508061407 | 47 | 309 | 0.0 | 1.0 | 0.00 | 0.03 | 0.03 | 93 | 1011.7 |
| 20260508055907 | 46 | 133 | 0.0 | 2.0 | 0.00 | 0.03 | 0.03 | 94 | 1011.9 |
| 20260508054404 | 46 | 46 | 0.0 | 0.0 | 0.00 | 0.03 | 0.03 | 94 | 1012.1 |
| 20260508052901 | 46 | 42 | 0.0 | 0.0 | 0.00 | 0.03 | 0.03 | 93 | 1012.4 |
| 20260508051356 | 47 | 53 | 0.0 | 0.0 | 0.00 | 0.03 | 0.03 | 93 | 1012.4 |
| 20260508045851 | 47 | 98 | 0.0 | 1.0 | 0.00 | 0.03 | 0.03 | 92 | 1012.7 |
| 20260508044348 | 47 | 314 | 0.0 | 1.0 | 0.07 | 0.03 | 0.03 | 92 | 1013.3 |
| 20260508042844 | 47 | 296 | 2.0 | 6.0 | 0.05 | 0.02 | 0.02 | 89 | 1013.2 |
| 20260508041341 | 47 | 300 | 0.0 | 1.0 | 0.07 | 0.01 | 0.01 | 90 | 1012.9 |
| 20260508035838 | 47 | 305 | 0.0 | 0.0 | 0.00 | 0.00 | 0.00 | 89 | 1012.5 |
| 20260508034335 | 47 | 4 | 0.0 | 0.0 | 0.00 | 0.00 | 0.00 | 87 | 1012.4 |
| 20260508032833 | 47 | 64 | 0.0 | 0.0 | 0.00 | 0.00 | 0.00 | 86 | 1012.5 |
| 20260508031330 | 47 | 64 | 0.0 | 0.0 | 0.00 | 0.00 | 0.00 | 87 | 1012.3 |
| 20260508025826 | 47 | 64 | 0.0 | 0.0 | 0.00 | 0.00 | 0.00 | 87 | 1012.6 |
| 20260508024322 | 47 | 68 | 0.0 | 0.0 | 0.00 | 0.00 | 0.00 | 85 | 1012.6 |
| 20260508022818 | 46 | 68 | 0.0 | 0.0 | 0.00 | 0.00 | 0.00 | 86 | 1012.6 |
| 20260508021313 | 47 | 68 | 0.0 | 0.0 | 0.00 | 0.00 | 0.00 | 85 | 1012.6 |
| 20260508015810 | 47 | 76 | 0.0 | 0.0 | 0.00 | 0.00 | 0.00 | 86 | 1012.6 |
| 20260508014308 | 49 | 101 | 0.0 | 0.0 | 0.00 | 0.00 | 0.00 | 80 | 1012.5 |
| 20260508012803 | 51 | 293 | 0.0 | 0.0 | 0.00 | 0.00 | 0.00 | 68 | 1012.7 |
| 20260508011301 | 51 | 284 | 0.0 | 0.0 | 0.00 | 0.00 | 0.00 | 66 | 1012.1 |
| 20260508005758 | 52 | 315 | 1.0 | 2.0 | 0.00 | 0.00 | 0.00 | 61 | 1012.5 |
| 20260508004258 | 52 | 323 | 0.0 | 1.0 | 0.00 | 0.00 | 0.00 | 59 | 1012.5 |
| 20260508002754 | 53 | 274 | 3.0 | 7.0 | 0.00 | 0.00 | 0.00 | 57 | 1012.5 |
| 20260508001249 | 53 | 309 | 1.0 | 2.0 | 0.00 | 0.00 | 0.00 | 54 | 1012.4 |
| 20260507235745 | 54 | 300 | 1.0 | 1.0 | 0.00 | 0.00 | 0.00 | 51 | 1012.4 |
| 20260507234242 | 55 | 296 | 3.0 | 4.0 | 0.00 | 0.00 | 0.00 | 48 | 1011.9 |
| 20260507232739 | 55 | 313 | 1.0 | 2.0 | 0.00 | 0.00 | 0.00 | 46 | 1011.9 |
| 20260507231235 | 56 | 321 | 1.0 | 1.0 | 0.00 | 0.00 | 0.00 | 45 | 1011.8 |
| 20260507225734 | 57 | 9 | 0.0 | 3.0 | 0.00 | 0.00 | 0.00 | 44 | 1011.7 |
| 20260507224229 | 58 | 302 | 2.0 | 2.0 | 0.00 | 0.00 | 0.00 | 43 | 1011.7 |
| 20260507222725 | 59 | 280 | 1.0 | 3.0 | 0.00 | 0.00 | 0.00 | 40 | 1011.5 |
| 20260507221220 | 59 | 295 | 4.0 | 7.0 | 0.00 | 0.00 | 0.00 | 41 | 1011.6 |
| 20260507215717 | 57 | 295 | 1.0 | 3.0 | 0.00 | 0.00 | 0.00 | 41 | 1011.7 |
| 20260507214214 | 60 | 313 | 2.0 | 3.0 | 0.00 | 0.00 | 0.00 | 39 | 1011.7 |
| 20260507212709 | 58 | 277 | 0.0 | 3.0 | 0.00 | 0.00 | 0.00 | 40 | 1011.7 |
| 20260507211210 | 58 | 322 | 3.0 | 6.0 | 0.00 | 0.00 | 0.00 | 39 | 1011.8 |
| 20260507205706 | 60 | 260 | 3.0 | 4.0 | 0.00 | 0.00 | 0.00 | 40 | 1011.8 |
| 20260507204203 | 62 | 306 | 1.0 | 4.0 | 0.00 | 0.00 | 0.00 | 40 | 1011.5 |
| 20260507202659 | 62 | 208 | 3.0 | 4.0 | 0.00 | 0.00 | 0.00 | 38 | 1011.7 |
| 20260507201200 | 62 | 321 | 0.0 | 4.0 | 0.00 | 0.00 | 0.00 | 41 | 1012.0 |
| 20260507195654 | 61 | 321 | 1.0 | 2.0 | 0.00 | 0.00 | 0.00 | 39 | 1012.0 |
| 20260507194150 | 63 | 289 | 3.0 | 7.0 | 0.00 | 0.00 | 0.00 | 37 | 1012.0 |
| 20260507192646 | 62 | 333 | 2.0 | 3.0 | 0.00 | 0.00 | 0.00 | 40 | 1012.1 |
| 20260507191142 | 61 | 303 | 3.0 | 8.0 | 0.00 | 0.00 | 0.00 | 42 | 1012.0 |
| 20260507185642 | 60 | 307 | 2.0 | 3.0 | 0.00 | 0.00 | 0.00 | 41 | 1012.5 |
| 20260507184140 | 59 | 314 | 2.0 | 10.0 | 0.00 | 0.00 | 0.00 | 43 | 1012.5 |
| 20260507182635 | 60 | 315 | 2.0 | 3.0 | 0.00 | 0.00 | 0.00 | 42 | 1012.6 |
| 20260507181130 | 58 | 340 | 1.0 | 4.0 | 0.00 | 0.00 | 0.00 | 44 | 1012.9 |
| 20260507175625 | 58 | 311 | 2.0 | 3.0 | 0.00 | 0.00 | 0.00 | 43 | 1012.7 |